หน้าหลัก
METAR-TAF:

METAR-TAF

ท่าอากาศยาน :

ท่าอากาศยานสตอกโฮล์ม-อาร์ลันดา

สต็อกโฮล์ม อาร์แลนด้า, สวีเดน

ละติจูด: 59-39N, ลองจิจูด: 017-57E, ความสูง: 38 ม.

การสังเกตสภาพอากาศปัจจุบัน

รายงานได้ทำขึ้นเมื่อ 48 นาทีที่แล้ว ณ เวลา 00:50 UTC
ลม 3 นอตจากตะวันตกเฉียงเหนือ
อุณหภูมิ 13°C
ความชื้น 88%
ความกดอากาศ 1013 hPa
ทัศนวิสัย 10 กม. หรือมากกว่า
ไม่มีเมฆต่ำกว่า 1,500 ม. และไม่มีเมฆคิวมูโลนิมบัส

METAR: ESSA 200050Z 31003KT CAVOK 13/11 Q1013 NOSIG

เวลา: 03:38 (01:38 UTC)

การพยากรณ์

รายงานได้ทำขึ้นเมื่อ 2 ชั่วโมงและ 8 นาทีที่แล้ว ณ เวลา 23:30 UTC
การพยากรณ์มีผลตั้งแต่วันที่ 20 ณ เวลา 00 UTC จนถึงวันที่ 20 ณ เวลา 24 UTC
ลม 3 นอตจากทิศทางซึ่งแปรผันได้
ทัศนวิสัย 10 กม. หรือมากกว่า
ไม่มีเมฆต่ำกว่า 1,500 ม. และไม่มีเมฆคิวมูโลนิมบัส
กำลังกลายเป็น
ตั้งแต่วันที่ 20 ณ เวลา 10 UTC จนถึงวันที่ 20 ณ เวลา 12 UTC
ลม 10 นอตจากเหนือ

TAF: ESSA 192330Z 2000/2024 VRB03KT CAVOK BECMG 2010/2012 36010KT

สังเกตการณ์สภาพอากาศและพยากรณ์อากาศของสนามบินมากกว่า 4000 แห่ง (รายงาน METAR และ TAF).

สถานีที่ดูได้จะแสดงไว้ด้วยจุดสีเหลืองและสีแดงบนแผนที่.

เลื่อนเมาส์ไปเหนือจุดเพื่อดูชื่อสถานี.

แล้วคลิกเพื่อดูสังเกตการณ์และการพยากรณ์สภาพอากาศ.

ในการเปลี่ยนแผนที่: คลิกที่ปุ่มสีเขียวที่มีกากบาทสีดำเพื่อซูมเข้า; ที่ปุ่มสีเขียวที่มีขีดเพื่อซูมออก; หรือที่ลูกศรสีเขียวเพื่อไปยังแผนที่ที่อยู่ติดกัน.


METAR-TAF: